sensor_id;sensor_type;location;lat;lon;timestamp;temperature;humidity
21891;DHT22;11110;52.386;16.940;2022-08-04T00:00:06;35.80;39.70
21891;DHT22;11110;52.386;16.940;2022-08-04T00:03:04;35.70;39.60
21891;DHT22;11110;52.386;16.940;2022-08-04T00:05:47;35.70;39.80
21891;DHT22;11110;52.386;16.940;2022-08-04T00:08:25;35.70;39.70
21891;DHT22;11110;52.386;16.940;2022-08-04T00:11:01;35.70;39.80
21891;DHT22;11110;52.386;16.940;2022-08-04T00:13:31;35.60;40.40
21891;DHT22;11110;52.386;16.940;2022-08-04T00:16:04;35.60;40.20
21891;DHT22;11110;52.386;16.940;2022-08-04T00:18:34;35.60;40.20
21891;DHT22;11110;52.386;16.940;2022-08-04T00:21:05;35.60;40.20
21891;DHT22;11110;52.386;16.940;2022-08-04T00:23:37;35.50;40.20
21891;DHT22;11110;52.386;16.940;2022-08-04T00:26:27;35.50;40.20
21891;DHT22;11110;52.386;16.940;2022-08-04T00:28:56;35.50;40.30
21891;DHT22;11110;52.386;16.940;2022-08-04T00:31:25;35.50;40.80
21891;DHT22;11110;52.386;16.940;2022-08-04T00:34:15;35.50;40.40
21891;DHT22;11110;52.386;16.940;2022-08-04T00:36:44;35.40;41.10
21891;DHT22;11110;52.386;16.940;2022-08-04T00:39:13;35.30;40.60
21891;DHT22;11110;52.386;16.940;2022-08-04T00:41:56;35.30;40.70
21891;DHT22;11110;52.386;16.940;2022-08-04T00:44:36;35.40;40.70
21891;DHT22;11110;52.386;16.940;2022-08-04T00:47:22;35.20;40.50
21891;DHT22;11110;52.386;16.940;2022-08-04T00:50:08;35.30;40.70
21891;DHT22;11110;52.386;16.940;2022-08-04T00:52:48;35.20;40.70
21891;DHT22;11110;52.386;16.940;2022-08-04T00:55:37;35.20;40.50
21891;DHT22;11110;52.386;16.940;2022-08-04T00:58:26;35.20;40.60
21891;DHT22;11110;52.386;16.940;2022-08-04T01:00:59;35.10;40.90
21891;DHT22;11110;52.386;16.940;2022-08-04T01:03:39;35.10;41.20
21891;DHT22;11110;52.386;16.940;2022-08-04T01:06:20;35.10;41.00
21891;DHT22;11110;52.386;16.940;2022-08-04T01:09:02;35.00;41.30
21891;DHT22;11110;52.386;16.940;2022-08-04T01:11:42;35.00;41.10
21891;DHT22;11110;52.386;16.940;2022-08-04T01:14:40;34.90;42.20
21891;DHT22;11110;52.386;16.940;2022-08-04T01:17:18;35.00;42.20
21891;DHT22;11110;52.386;16.940;2022-08-04T01:19:59;34.90;42.10
21891;DHT22;11110;52.386;16.940;2022-08-04T01:22:58;34.90;41.50
21891;DHT22;11110;52.386;16.940;2022-08-04T01:25:59;34.90;41.40
21891;DHT22;11110;52.386;16.940;2022-08-04T01:29:03;34.80;41.30
21891;DHT22;11110;52.386;16.940;2022-08-04T01:31:45;34.80;41.40
21891;DHT22;11110;52.386;16.940;2022-08-04T01:34:18;34.80;41.30
21891;DHT22;11110;52.386;16.940;2022-08-04T01:36:56;34.70;41.10
21891;DHT22;11110;52.386;16.940;2022-08-04T01:39:33;34.80;41.20
21891;DHT22;11110;52.386;16.940;2022-08-04T01:42:09;34.80;40.90
21891;DHT22;11110;52.386;16.940;2022-08-04T01:44:50;34.70;40.90
21891;DHT22;11110;52.386;16.940;2022-08-04T01:47:20;34.70;40.90
21891;DHT22;11110;52.386;16.940;2022-08-04T01:49:49;34.60;40.80
21891;DHT22;11110;52.386;16.940;2022-08-04T01:52:19;34.60;40.90
21891;DHT22;11110;52.386;16.940;2022-08-04T01:54:48;34.60;40.70
21891;DHT22;11110;52.386;16.940;2022-08-04T01:57:18;34.60;40.80
21891;DHT22;11110;52.386;16.940;2022-08-04T02:00:08;34.50;40.80
21891;DHT22;11110;52.386;16.940;2022-08-04T02:02:37;34.50;40.80
21891;DHT22;11110;52.386;16.940;2022-08-04T02:05:09;34.50;40.70
21891;DHT22;11110;52.386;16.940;2022-08-04T02:07:54;34.50;40.80
21891;DHT22;11110;52.386;16.940;2022-08-04T02:10:28;34.50;40.70
21891;DHT22;11110;52.386;16.940;2022-08-04T02:13:05;34.40;40.70
21891;DHT22;11110;52.386;16.940;2022-08-04T02:15:51;34.40;40.80
21891;DHT22;11110;52.386;16.940;2022-08-04T02:18:30;34.30;40.70
21891;DHT22;11110;52.386;16.940;2022-08-04T02:21:00;34.40;40.80
21891;DHT22;11110;52.386;16.940;2022-08-04T02:23:33;34.30;40.80
21891;DHT22;11110;52.386;16.940;2022-08-04T02:26:05;34.20;41.40
21891;DHT22;11110;52.386;16.940;2022-08-04T02:28:47;34.20;41.10
21891;DHT22;11110;52.386;16.940;2022-08-04T02:31:28;34.10;41.20
21891;DHT22;11110;52.386;16.940;2022-08-04T02:34:05;34.10;41.20
21891;DHT22;11110;52.386;16.940;2022-08-04T02:36:36;34.10;41.30
21891;DHT22;11110;52.386;16.940;2022-08-04T02:39:06;34.10;41.50
21891;DHT22;11110;52.386;16.940;2022-08-04T02:41:36;34.10;41.60
21891;DHT22;11110;52.386;16.940;2022-08-04T02:44:07;34.10;41.70
21891;DHT22;11110;52.386;16.940;2022-08-04T02:46:39;34.10;41.60
21891;DHT22;11110;52.386;16.940;2022-08-04T02:49:09;34.10;41.80
21891;DHT22;11110;52.386;16.940;2022-08-04T02:51:41;34.00;41.70
21891;DHT22;11110;52.386;16.940;2022-08-04T02:54:09;34.00;42.10
21891;DHT22;11110;52.386;16.940;2022-08-04T02:56:38;34.10;41.90
21891;DHT22;11110;52.386;16.940;2022-08-04T02:59:09;34.00;42.00
21891;DHT22;11110;52.386;16.940;2022-08-04T03:01:40;34.00;41.90
21891;DHT22;11110;52.386;16.940;2022-08-04T03:04:42;33.90;42.00
21891;DHT22;11110;52.386;16.940;2022-08-04T03:07:28;34.00;42.00
21891;DHT22;11110;52.386;16.940;2022-08-04T03:10:19;33.90;41.90
21891;DHT22;11110;52.386;16.940;2022-08-04T03:13:15;33.90;42.30
21891;DHT22;11110;52.386;16.940;2022-08-04T03:19:27;33.80;42.20
21891;DHT22;11110;52.386;16.940;2022-08-04T03:22:17;33.80;42.10
21891;DHT22;11110;52.386;16.940;2022-08-04T03:25:14;33.80;42.00
21891;DHT22;11110;52.386;16.940;2022-08-04T03:28:17;33.80;42.00
21891;DHT22;11110;52.386;16.940;2022-08-04T03:34:02;33.80;41.90
21891;DHT22;11110;52.386;16.940;2022-08-04T03:36:51;33.70;41.80
21891;DHT22;11110;52.386;16.940;2022-08-04T03:42:38;33.70;42.40
21891;DHT22;11110;52.386;16.940;2022-08-04T03:48:31;33.70;41.70
21891;DHT22;11110;52.386;16.940;2022-08-04T03:51:18;33.70;42.10
21891;DHT22;11110;52.386;16.940;2022-08-04T04:00:20;33.70;42.40
21891;DHT22;11110;52.386;16.940;2022-08-04T04:03:11;33.50;42.10
21891;DHT22;11110;52.386;16.940;2022-08-04T04:06:09;33.70;42.40
21891;DHT22;11110;52.386;16.940;2022-08-04T04:09:19;33.60;42.50
21891;DHT22;11110;52.386;16.940;2022-08-04T04:12:23;33.60;42.20
21891;DHT22;11110;52.386;16.940;2022-08-04T04:15:02;33.60;42.10
21891;DHT22;11110;52.386;16.940;2022-08-04T04:17:53;33.50;42.10
21891;DHT22;11110;52.386;16.940;2022-08-04T04:23:29;33.50;41.80
21891;DHT22;11110;52.386;16.940;2022-08-04T04:26:06;33.50;41.80
21891;DHT22;11110;52.386;16.940;2022-08-04T04:29:19;33.50;41.70
21891;DHT22;11110;52.386;16.940;2022-08-04T04:32:03;33.40;41.40
21891;DHT22;11110;52.386;16.940;2022-08-04T04:34:41;33.50;41.40
21891;DHT22;11110;52.386;16.940;2022-08-04T04:37:19;33.40;41.40
21891;DHT22;11110;52.386;16.940;2022-08-04T04:40:02;33.50;41.40
21891;DHT22;11110;52.386;16.940;2022-08-04T04:43:09;33.50;41.10
21891;DHT22;11110;52.386;16.940;2022-08-04T04:45:45;33.50;41.00
21891;DHT22;11110;52.386;16.940;2022-08-04T04:48:32;33.50;41.10
21891;DHT22;11110;52.386;16.940;2022-08-04T04:51:09;33.60;41.10
21891;DHT22;11110;52.386;16.940;2022-08-04T04:53:46;33.50;41.40
21891;DHT22;11110;52.386;16.940;2022-08-04T04:56:29;33.60;41.00
21891;DHT22;11110;52.386;16.940;2022-08-04T04:59:06;33.60;41.20
21891;DHT22;11110;52.386;16.940;2022-08-04T05:05:02;33.70;40.90
21891;DHT22;11110;52.386;16.940;2022-08-04T05:11:00;33.80;41.00
21891;DHT22;11110;52.386;16.940;2022-08-04T05:13:33;33.70;41.40
21891;DHT22;11110;52.386;16.940;2022-08-04T05:16:26;33.80;41.30
21891;DHT22;11110;52.386;16.940;2022-08-04T05:19:16;33.70;41.40
21891;DHT22;11110;52.386;16.940;2022-08-04T05:21:50;33.80;41.20
21891;DHT22;11110;52.386;16.940;2022-08-04T05:24:21;33.80;41.00
21891;DHT22;11110;52.386;16.940;2022-08-04T05:26:54;33.80;40.90
21891;DHT22;11110;52.386;16.940;2022-08-04T05:29:28;33.80;40.90
21891;DHT22;11110;52.386;16.940;2022-08-04T05:32:01;33.90;40.70
21891;DHT22;11110;52.386;16.940;2022-08-04T05:34:34;33.90;40.80
21891;DHT22;11110;52.386;16.940;2022-08-04T05:37:09;33.90;40.60
21891;DHT22;11110;52.386;16.940;2022-08-04T05:39:44;33.90;40.70
21891;DHT22;11110;52.386;16.940;2022-08-04T05:42:14;33.90;40.80
21891;DHT22;11110;52.386;16.940;2022-08-04T05:44:43;33.90;41.10
21891;DHT22;11110;52.386;16.940;2022-08-04T05:47:17;33.90;40.60
21891;DHT22;11110;52.386;16.940;2022-08-04T05:49:48;33.90;40.50
21891;DHT22;11110;52.386;16.940;2022-08-04T05:52:29;33.90;40.40
21891;DHT22;11110;52.386;16.940;2022-08-04T05:54:58;34.20;41.00
21891;DHT22;11110;52.386;16.940;2022-08-04T05:57:27;34.00;40.60
21891;DHT22;11110;52.386;16.940;2022-08-04T05:59:58;34.10;40.60
21891;DHT22;11110;52.386;16.940;2022-08-04T06:02:42;34.10;40.30
21891;DHT22;11110;52.386;16.940;2022-08-04T06:05:13;34.20;40.30
21891;DHT22;11110;52.386;16.940;2022-08-04T06:07:43;34.20;40.30
21891;DHT22;11110;52.386;16.940;2022-08-04T06:10:33;34.20;40.30
21891;DHT22;11110;52.386;16.940;2022-08-04T06:13:06;34.30;40.40
21891;DHT22;11110;52.386;16.940;2022-08-04T06:15:58;34.40;40.20
21891;DHT22;11110;52.386;16.940;2022-08-04T06:18:29;34.40;40.20
21891;DHT22;11110;52.386;16.940;2022-08-04T06:21:20;34.50;40.20
21891;DHT22;11110;52.386;16.940;2022-08-04T06:23:51;34.50;40.20
21891;DHT22;11110;52.386;16.940;2022-08-04T06:26:32;34.50;40.10
21891;DHT22;11110;52.386;16.940;2022-08-04T06:29:02;34.60;40.70
21891;DHT22;11110;52.386;16.940;2022-08-04T06:31:32;34.60;40.10
21891;DHT22;11110;52.386;16.940;2022-08-04T06:34:33;34.70;40.20
21891;DHT22;11110;52.386;16.940;2022-08-04T06:37:03;34.80;40.00
21891;DHT22;11110;52.386;16.940;2022-08-04T06:39:35;34.80;40.00
21891;DHT22;11110;52.386;16.940;2022-08-04T06:42:05;34.90;39.90
21891;DHT22;11110;52.386;16.940;2022-08-04T06:44:53;34.90;39.90
21891;DHT22;11110;52.386;16.940;2022-08-04T06:47:23;34.90;39.70
21891;DHT22;11110;52.386;16.940;2022-08-04T06:49:53;34.90;39.60
21891;DHT22;11110;52.386;16.940;2022-08-04T06:52:43;35.00;39.50
21891;DHT22;11110;52.386;16.940;2022-08-04T06:55:14;35.00;39.60
21891;DHT22;11110;52.386;16.940;2022-08-04T06:57:42;35.10;39.50
21891;DHT22;11110;52.386;16.940;2022-08-04T07:00:13;35.10;39.30
21891;DHT22;11110;52.386;16.940;2022-08-04T07:02:44;35.30;39.00
21891;DHT22;11110;52.386;16.940;2022-08-04T07:05:14;35.30;39.10
21891;DHT22;11110;52.386;16.940;2022-08-04T07:07:43;35.30;39.00
21891;DHT22;11110;52.386;16.940;2022-08-04T07:10:26;35.40;39.10
21891;DHT22;11110;52.386;16.940;2022-08-04T07:12:55;35.50;38.90
21891;DHT22;11110;52.386;16.940;2022-08-04T07:15:24;35.50;38.80
21891;DHT22;11110;52.386;16.940;2022-08-04T07:17:53;35.50;38.70
21891;DHT22;11110;52.386;16.940;2022-08-04T07:20:26;35.60;38.30
21891;DHT22;11110;52.386;16.940;2022-08-04T07:23:02;35.60;38.20
21891;DHT22;11110;52.386;16.940;2022-08-04T07:25:32;35.70;38.20
21891;DHT22;11110;52.386;16.940;2022-08-04T07:28:23;35.80;38.10
21891;DHT22;11110;52.386;16.940;2022-08-04T07:30:53;35.80;38.40
21891;DHT22;11110;52.386;16.940;2022-08-04T07:33:22;35.90;38.70
21891;DHT22;11110;52.386;16.940;2022-08-04T07:35:52;36.00;38.50
21891;DHT22;11110;52.386;16.940;2022-08-04T07:38:37;36.10;38.50
21891;DHT22;11110;52.386;16.940;2022-08-04T07:41:21;36.10;37.90
21891;DHT22;11110;52.386;16.940;2022-08-04T07:44:06;36.20;38.00
21891;DHT22;11110;52.386;16.940;2022-08-04T07:46:35;36.30;37.70
21891;DHT22;11110;52.386;16.940;2022-08-04T07:49:04;36.40;37.70
21891;DHT22;11110;52.386;16.940;2022-08-04T07:51:35;36.40;37.90
21891;DHT22;11110;52.386;16.940;2022-08-04T07:54:04;36.50;37.50
21891;DHT22;11110;52.386;16.940;2022-08-04T07:56:38;36.50;37.30
21891;DHT22;11110;52.386;16.940;2022-08-04T07:59:07;36.60;37.60
21891;DHT22;11110;52.386;16.940;2022-08-04T08:01:36;36.60;37.30
21891;DHT22;11110;52.386;16.940;2022-08-04T08:04:06;36.70;36.80
21891;DHT22;11110;52.386;16.940;2022-08-04T08:06:36;36.70;36.80
21891;DHT22;11110;52.386;16.940;2022-08-04T08:09:11;36.80;37.10
21891;DHT22;11110;52.386;16.940;2022-08-04T08:11:43;36.90;36.80
21891;DHT22;11110;52.386;16.940;2022-08-04T08:14:34;37.00;37.10
21891;DHT22;11110;52.386;16.940;2022-08-04T08:17:03;37.00;37.10
21891;DHT22;11110;52.386;16.940;2022-08-04T08:19:33;37.00;37.20
21891;DHT22;11110;52.386;16.940;2022-08-04T08:22:02;37.10;36.50
21891;DHT22;11110;52.386;16.940;2022-08-04T08:24:34;37.20;35.10
21891;DHT22;11110;52.386;16.940;2022-08-04T08:27:06;37.20;35.20
21891;DHT22;11110;52.386;16.940;2022-08-04T08:29:34;37.20;36.20
21891;DHT22;11110;52.386;16.940;2022-08-04T08:32:04;37.30;35.70
21891;DHT22;11110;52.386;16.940;2022-08-04T08:34:36;37.30;34.50
21891;DHT22;11110;52.386;16.940;2022-08-04T08:37:11;37.40;34.90
21891;DHT22;11110;52.386;16.940;2022-08-04T08:39:44;37.50;34.80
21891;DHT22;11110;52.386;16.940;2022-08-04T08:42:36;37.60;34.60
21891;DHT22;11110;52.386;16.940;2022-08-04T08:45:28;37.70;34.60
21891;DHT22;11110;52.386;16.940;2022-08-04T08:51:19;37.90;34.40
21891;DHT22;11110;52.386;16.940;2022-08-04T08:54:03;38.00;33.90
21891;DHT22;11110;52.386;16.940;2022-08-04T08:56:41;38.00;34.40
21891;DHT22;11110;52.386;16.940;2022-08-04T08:59:28;38.10;34.60
21891;DHT22;11110;52.386;16.940;2022-08-04T09:02:13;38.30;34.40
21891;DHT22;11110;52.386;16.940;2022-08-04T09:05:01;38.30;34.70
21891;DHT22;11110;52.386;16.940;2022-08-04T09:07:51;38.40;33.70
21891;DHT22;11110;52.386;16.940;2022-08-04T09:10:24;38.40;33.90
21891;DHT22;11110;52.386;16.940;2022-08-04T09:13:04;38.50;34.10
21891;DHT22;11110;52.386;16.940;2022-08-04T09:15:38;38.60;33.50
21891;DHT22;11110;52.386;16.940;2022-08-04T09:18:12;38.60;34.20
21891;DHT22;11110;52.386;16.940;2022-08-04T09:20:48;38.70;33.70
21891;DHT22;11110;52.386;16.940;2022-08-04T09:23:25;38.70;32.80
21891;DHT22;11110;52.386;16.940;2022-08-04T09:26:00;38.90;33.20
21891;DHT22;11110;52.386;16.940;2022-08-04T09:28:41;38.80;33.60
21891;DHT22;11110;52.386;16.940;2022-08-04T09:31:30;39.00;33.30
21891;DHT22;11110;52.386;16.940;2022-08-04T09:34:37;39.00;33.20
21891;DHT22;11110;52.386;16.940;2022-08-04T09:37:14;39.10;33.90
21891;DHT22;11110;52.386;16.940;2022-08-04T09:39:48;39.10;33.00
21891;DHT22;11110;52.386;16.940;2022-08-04T09:42:27;39.10;32.60
21891;DHT22;11110;52.386;16.940;2022-08-04T09:45:05;39.20;32.40
21891;DHT22;11110;52.386;16.940;2022-08-04T09:47:48;39.20;32.60
21891;DHT22;11110;52.386;16.940;2022-08-04T09:50:33;39.30;33.50
21891;DHT22;11110;52.386;16.940;2022-08-04T09:53:17;39.30;32.70
21891;DHT22;11110;52.386;16.940;2022-08-04T09:55:54;39.40;32.50
21891;DHT22;11110;52.386;16.940;2022-08-04T09:58:45;39.40;32.40
21891;DHT22;11110;52.386;16.940;2022-08-04T10:01:20;39.50;32.70
21891;DHT22;11110;52.386;16.940;2022-08-04T10:03:55;39.50;33.00
21891;DHT22;11110;52.386;16.940;2022-08-04T10:06:55;39.70;32.10
21891;DHT22;11110;52.386;16.940;2022-08-04T10:09:49;39.70;32.40
21891;DHT22;11110;52.386;16.940;2022-08-04T10:12:30;39.70;32.60
21891;DHT22;11110;52.386;16.940;2022-08-04T10:15:08;39.80;32.70
21891;DHT22;11110;52.386;16.940;2022-08-04T10:17:44;39.80;32.40
21891;DHT22;11110;52.386;16.940;2022-08-04T10:20:26;39.90;32.20
21891;DHT22;11110;52.386;16.940;2022-08-04T10:23:14;39.90;31.60
21891;DHT22;11110;52.386;16.940;2022-08-04T10:25:51;39.90;31.20
21891;DHT22;11110;52.386;16.940;2022-08-04T10:28:40;40.10;31.50
21891;DHT22;11110;52.386;16.940;2022-08-04T10:31:15;40.10;31.60
21891;DHT22;11110;52.386;16.940;2022-08-04T10:33:51;40.20;31.60
21891;DHT22;11110;52.386;16.940;2022-08-04T10:36:26;40.20;31.90
21891;DHT22;11110;52.386;16.940;2022-08-04T10:39:00;40.30;31.40
21891;DHT22;11110;52.386;16.940;2022-08-04T10:41:35;40.30;31.20
21891;DHT22;11110;52.386;16.940;2022-08-04T10:44:15;40.40;31.70
21891;DHT22;11110;52.386;16.940;2022-08-04T10:46:53;40.40;31.50
21891;DHT22;11110;52.386;16.940;2022-08-04T10:49:32;40.40;31.60
21891;DHT22;11110;52.386;16.940;2022-08-04T10:52:06;40.40;31.50
21891;DHT22;11110;52.386;16.940;2022-08-04T10:54:42;40.50;31.20
21891;DHT22;11110;52.386;16.940;2022-08-04T10:57:18;40.60;31.20
21891;DHT22;11110;52.386;16.940;2022-08-04T10:59:54;40.60;31.00
21891;DHT22;11110;52.386;16.940;2022-08-04T11:02:37;40.60;31.30
21891;DHT22;11110;52.386;16.940;2022-08-04T11:05:19;40.60;31.30
21891;DHT22;11110;52.386;16.940;2022-08-04T11:07:58;40.70;31.40
21891;DHT22;11110;52.386;16.940;2022-08-04T11:10:29;40.80;31.50
21891;DHT22;11110;52.386;16.940;2022-08-04T11:13:02;40.80;31.40
21891;DHT22;11110;52.386;16.940;2022-08-04T11:15:37;40.90;31.20
21891;DHT22;11110;52.386;16.940;2022-08-04T11:18:12;41.00;30.70
21891;DHT22;11110;52.386;16.940;2022-08-04T11:20:47;41.00;30.70
21891;DHT22;11110;52.386;16.940;2022-08-04T11:23:23;41.00;30.80
21891;DHT22;11110;52.386;16.940;2022-08-04T11:25:58;41.10;31.30
21891;DHT22;11110;52.386;16.940;2022-08-04T11:28:36;41.10;31.00
21891;DHT22;11110;52.386;16.940;2022-08-04T11:31:10;41.20;30.40
21891;DHT22;11110;52.386;16.940;2022-08-04T11:33:44;41.20;30.20
21891;DHT22;11110;52.386;16.940;2022-08-04T11:36:19;41.40;30.10
21891;DHT22;11110;52.386;16.940;2022-08-04T11:38:57;41.30;30.70
21891;DHT22;11110;52.386;16.940;2022-08-04T11:41:38;41.40;30.60
21891;DHT22;11110;52.386;16.940;2022-08-04T11:44:12;41.40;30.40
21891;DHT22;11110;52.386;16.940;2022-08-04T11:46:47;41.50;30.40
21891;DHT22;11110;52.386;16.940;2022-08-04T11:49:25;41.50;30.50
21891;DHT22;11110;52.386;16.940;2022-08-04T11:51:55;41.60;30.10
21891;DHT22;11110;52.386;16.940;2022-08-04T11:54:27;41.60;29.80
21891;DHT22;11110;52.386;16.940;2022-08-04T11:56:57;41.60;30.20
21891;DHT22;11110;52.386;16.940;2022-08-04T11:59:26;41.60;30.30
21891;DHT22;11110;52.386;16.940;2022-08-04T12:02:07;41.70;30.10
21891;DHT22;11110;52.386;16.940;2022-08-04T12:04:54;41.80;30.30
21891;DHT22;11110;52.386;16.940;2022-08-04T12:07:41;41.80;30.80
21891;DHT22;11110;52.386;16.940;2022-08-04T12:10:23;41.90;30.30
21891;DHT22;11110;52.386;16.940;2022-08-04T12:13:18;41.90;30.00
21891;DHT22;11110;52.386;16.940;2022-08-04T12:15:58;42.00;30.30
21891;DHT22;11110;52.386;16.940;2022-08-04T12:18:33;42.00;30.00
21891;DHT22;11110;52.386;16.940;2022-08-04T12:21:10;42.10;29.90
21891;DHT22;11110;52.386;16.940;2022-08-04T12:23:42;42.10;29.80
21891;DHT22;11110;52.386;16.940;2022-08-04T12:26:28;42.10;29.90
21891;DHT22;11110;52.386;16.940;2022-08-04T12:28:59;42.20;30.10
21891;DHT22;11110;52.386;16.940;2022-08-04T12:31:43;42.20;30.60
21891;DHT22;11110;52.386;16.940;2022-08-04T12:34:18;42.30;29.80
21891;DHT22;11110;52.386;16.940;2022-08-04T12:37:01;42.30;29.60
21891;DHT22;11110;52.386;16.940;2022-08-04T12:39:30;42.30;29.60
21891;DHT22;11110;52.386;16.940;2022-08-04T12:42:12;42.30;30.10
21891;DHT22;11110;52.386;16.940;2022-08-04T12:44:48;42.40;29.60
21891;DHT22;11110;52.386;16.940;2022-08-04T12:47:22;42.50;29.80
21891;DHT22;11110;52.386;16.940;2022-08-04T12:49:58;42.50;29.50
21891;DHT22;11110;52.386;16.940;2022-08-04T12:52:30;42.60;29.50
21891;DHT22;11110;52.386;16.940;2022-08-04T12:55:23;42.70;30.00
21891;DHT22;11110;52.386;16.940;2022-08-04T12:57:54;42.70;29.10
21891;DHT22;11110;52.386;16.940;2022-08-04T13:00:28;42.80;29.60
21891;DHT22;11110;52.386;16.940;2022-08-04T13:03:07;42.80;29.80
21891;DHT22;11110;52.386;16.940;2022-08-04T13:05:39;42.90;29.70
21891;DHT22;11110;52.386;16.940;2022-08-04T13:08:10;43.10;28.90
21891;DHT22;11110;52.386;16.940;2022-08-04T13:10:40;43.00;29.20
21891;DHT22;11110;52.386;16.940;2022-08-04T13:13:16;43.10;28.90
21891;DHT22;11110;52.386;16.940;2022-08-04T13:15:56;43.10;28.70
21891;DHT22;11110;52.386;16.940;2022-08-04T13:18:27;43.30;28.70
21891;DHT22;11110;52.386;16.940;2022-08-04T13:21:13;43.30;28.40
21891;DHT22;11110;52.386;16.940;2022-08-04T13:23:48;43.40;28.70
21891;DHT22;11110;52.386;16.940;2022-08-04T13:26:45;43.40;28.80
21891;DHT22;11110;52.386;16.940;2022-08-04T13:29:30;43.40;28.40
21891;DHT22;11110;52.386;16.940;2022-08-04T13:32:22;43.40;29.10
21891;DHT22;11110;52.386;16.940;2022-08-04T13:34:55;43.40;28.30
21891;DHT22;11110;52.386;16.940;2022-08-04T13:37:29;43.60;28.30
21891;DHT22;11110;52.386;16.940;2022-08-04T13:39:58;43.50;28.50
21891;DHT22;11110;52.386;16.940;2022-08-04T13:42:27;43.60;28.70
21891;DHT22;11110;52.386;16.940;2022-08-04T13:44:59;43.60;28.60
21891;DHT22;11110;52.386;16.940;2022-08-04T13:47:30;43.70;28.10
21891;DHT22;11110;52.386;16.940;2022-08-04T13:50:11;43.70;28.50
21891;DHT22;11110;52.386;16.940;2022-08-04T13:52:42;43.80;28.90
21891;DHT22;11110;52.386;16.940;2022-08-04T13:55:22;43.80;28.30
21891;DHT22;11110;52.386;16.940;2022-08-04T13:57:56;44.00;28.50
21891;DHT22;11110;52.386;16.940;2022-08-04T14:00:39;44.00;28.20
21891;DHT22;11110;52.386;16.940;2022-08-04T14:03:09;44.00;28.50
21891;DHT22;11110;52.386;16.940;2022-08-04T14:06:08;44.00;28.30
21891;DHT22;11110;52.386;16.940;2022-08-04T14:08:46;44.20;28.60
21891;DHT22;11110;52.386;16.940;2022-08-04T14:11:17;44.20;28.70
21891;DHT22;11110;52.386;16.940;2022-08-04T14:14:17;44.20;28.40
21891;DHT22;11110;52.386;16.940;2022-08-04T14:17:00;44.30;28.00
21891;DHT22;11110;52.386;16.940;2022-08-04T14:19:47;44.40;28.10
21891;DHT22;11110;52.386;16.940;2022-08-04T14:22:30;44.40;28.00
21891;DHT22;11110;52.386;16.940;2022-08-04T14:25:03;44.50;28.00
21891;DHT22;11110;52.386;16.940;2022-08-04T14:27:41;44.50;27.90
21891;DHT22;11110;52.386;16.940;2022-08-04T14:30:25;44.60;28.30
21891;DHT22;11110;52.386;16.940;2022-08-04T14:33:00;44.60;27.80
21891;DHT22;11110;52.386;16.940;2022-08-04T14:35:56;44.60;28.00
21891;DHT22;11110;52.386;16.940;2022-08-04T14:38:44;44.70;28.20
21891;DHT22;11110;52.386;16.940;2022-08-04T14:41:14;44.80;28.50
21891;DHT22;11110;52.386;16.940;2022-08-04T14:43:44;44.80;27.90
21891;DHT22;11110;52.386;16.940;2022-08-04T14:46:14;44.80;28.50
21891;DHT22;11110;52.386;16.940;2022-08-04T14:49:05;44.90;27.30
21891;DHT22;11110;52.386;16.940;2022-08-04T14:51:38;44.90;28.30
21891;DHT22;11110;52.386;16.940;2022-08-04T14:54:10;44.90;28.40
21891;DHT22;11110;52.386;16.940;2022-08-04T14:56:52;44.80;28.10
21891;DHT22;11110;52.386;16.940;2022-08-04T14:59:21;44.90;28.10
21891;DHT22;11110;52.386;16.940;2022-08-04T15:01:51;44.90;28.20
21891;DHT22;11110;52.386;16.940;2022-08-04T15:04:29;44.90;28.20
21891;DHT22;11110;52.386;16.940;2022-08-04T15:06:58;45.00;27.70
21891;DHT22;11110;52.386;16.940;2022-08-04T15:09:31;45.00;27.60
21891;DHT22;11110;52.386;16.940;2022-08-04T15:12:01;45.10;27.70
21891;DHT22;11110;52.386;16.940;2022-08-04T15:14:30;45.00;27.90
21891;DHT22;11110;52.386;16.940;2022-08-04T15:17:05;45.00;28.50
21891;DHT22;11110;52.386;16.940;2022-08-04T15:19:55;45.00;27.40
21891;DHT22;11110;52.386;16.940;2022-08-04T15:22:24;45.10;27.10
21891;DHT22;11110;52.386;16.940;2022-08-04T15:24:53;45.00;27.30
21891;DHT22;11110;52.386;16.940;2022-08-04T15:27:23;44.80;27.90
21891;DHT22;11110;52.386;16.940;2022-08-04T15:29:56;44.70;28.00
21891;DHT22;11110;52.386;16.940;2022-08-04T15:32:29;44.70;28.20
21891;DHT22;11110;52.386;16.940;2022-08-04T15:35:03;44.70;28.20
21891;DHT22;11110;52.386;16.940;2022-08-04T15:37:38;44.70;28.10
21891;DHT22;11110;52.386;16.940;2022-08-04T15:40:13;44.80;28.40
21891;DHT22;11110;52.386;16.940;2022-08-04T15:42:46;44.80;27.80
21891;DHT22;11110;52.386;16.940;2022-08-04T15:45:20;44.80;28.10
21891;DHT22;11110;52.386;16.940;2022-08-04T15:48:23;44.80;27.50
21891;DHT22;11110;52.386;16.940;2022-08-04T15:51:06;44.80;27.80
21891;DHT22;11110;52.386;16.940;2022-08-04T15:54:20;44.90;27.70
21891;DHT22;11110;52.386;16.940;2022-08-04T15:56:58;44.80;27.00
21891;DHT22;11110;52.386;16.940;2022-08-04T15:59:59;44.80;27.40
21891;DHT22;11110;52.386;16.940;2022-08-04T16:02:41;44.90;27.60
21891;DHT22;11110;52.386;16.940;2022-08-04T16:05:32;44.80;27.70
21891;DHT22;11110;52.386;16.940;2022-08-04T16:08:15;44.80;27.90
21891;DHT22;11110;52.386;16.940;2022-08-04T16:10:48;44.80;28.00
21891;DHT22;11110;52.386;16.940;2022-08-04T16:13:18;44.80;27.20
21891;DHT22;11110;52.386;16.940;2022-08-04T16:15:49;44.70;27.80
21891;DHT22;11110;52.386;16.940;2022-08-04T16:18:36;44.70;27.70
21891;DHT22;11110;52.386;16.940;2022-08-04T16:21:15;44.70;28.40
21891;DHT22;11110;52.386;16.940;2022-08-04T16:24:11;44.70;28.20
21891;DHT22;11110;52.386;16.940;2022-08-04T16:26:45;44.80;28.20
21891;DHT22;11110;52.386;16.940;2022-08-04T16:29:30;44.80;27.60
21891;DHT22;11110;52.386;16.940;2022-08-04T16:32:20;44.80;28.10
21891;DHT22;11110;52.386;16.940;2022-08-04T16:34:58;44.90;28.00
21891;DHT22;11110;52.386;16.940;2022-08-04T16:37:32;44.90;28.20
21891;DHT22;11110;52.386;16.940;2022-08-04T16:40:31;45.00;28.00
21891;DHT22;11110;52.386;16.940;2022-08-04T16:43:07;45.10;28.20
21891;DHT22;11110;52.386;16.940;2022-08-04T16:45:43;45.10;27.30
21891;DHT22;11110;52.386;16.940;2022-08-04T16:48:12;45.10;27.90
21891;DHT22;11110;52.386;16.940;2022-08-04T16:53:37;45.20;27.50
21891;DHT22;11110;52.386;16.940;2022-08-04T16:56:31;45.30;26.60
21891;DHT22;11110;52.386;16.940;2022-08-04T16:59:05;45.30;27.70